Time;durP1;ratioP1;P1;durP2;ratioP2;P2;SDS_P1;SDS_P2;PMS_P1;PMS_P2;Temp;Humidity;BMP_temperature;BMP_pressure;BME280_temperature;BME280_humidity;BME280_pressure;Samples;Min_cycle;Max_cycle;Signal;HPM_P1;HPM_P2
2022/05/09 00:00:17;;;;;;;8.10;3.80;;;10.30;99.90;;;;;;5122762;28;20950;-67
2022/05/09 00:02:43;;;;;;;10.33;5.43;;;10.20;99.90;;;;;;5121747;28;20242;-69
2022/05/09 00:05:13;;;;;;;10.83;4.53;;;10.20;99.90;;;;;;5112381;28;20825;-70
2022/05/09 00:07:38;;;;;;;10.70;4.73;;;10.10;99.90;;;;;;5119249;28;20270;-69
2022/05/09 00:10:04;;;;;;;9.47;5.07;;;10.10;99.90;;;;;;5117343;27;20531;-70
2022/05/09 00:12:31;;;;;;;9.50;5.17;;;10.10;99.90;;;;;;5119022;27;20293;-68
2022/05/09 00:14:57;;;;;;;8.67;4.70;;;10.00;99.90;;;;;;5119409;27;20452;-68
2022/05/09 00:17:23;;;;;;;11.90;4.77;;;10.00;99.90;;;;;;5122682;27;20416;-70
2022/05/09 00:19:48;;;;;;;8.60;4.93;;;10.00;99.90;;;;;;5121870;27;21733;-69
2022/05/09 00:22:14;;;;;;;10.27;5.10;;;10.00;99.90;;;;;;5121098;27;20210;-68
2022/05/09 00:24:40;;;;;;;8.03;4.60;;;9.90;99.90;;;;;;5120402;27;20199;-68
2022/05/09 00:27:05;;;;;;;11.53;5.33;;;9.90;99.90;;;;;;5119952;27;20187;-69
2022/05/09 00:29:31;;;;;;;9.00;5.37;;;9.90;99.90;;;;;;5118455;27;20958;-68
2022/05/09 00:31:57;;;;;;;9.00;4.80;;;9.80;99.90;;;;;;5114019;27;20172;-68
2022/05/09 00:34:24;;;;;;;8.93;5.30;;;9.80;99.90;;;;;;5118079;27;20634;-67
2022/05/09 00:36:52;;;;;;;8.07;5.10;;;9.80;99.90;;;;;;5127227;27;20567;-68
2022/05/09 00:39:18;;;;;;;7.50;4.33;;;9.70;99.90;;;;;;5113594;27;20518;-69
2022/05/09 00:41:45;;;;;;;7.77;4.17;;;9.70;99.90;;;;;;5124377;27;21361;-68
2022/05/09 00:44:17;;;;;;;11.03;4.97;;;9.70;99.90;;;;;;5119254;27;20897;-68
2022/05/09 00:46:48;;;;;;;9.20;4.40;;;9.70;99.90;;;;;;5126596;27;20512;-69
2022/05/09 00:49:40;;;;;;;8.80;4.83;;;9.70;99.90;;;;;;5124370;27;20512;-69
2022/05/09 00:52:16;;;;;;;8.53;4.60;;;9.70;99.90;;;;;;5123603;27;20453;-69
2022/05/09 00:54:53;;;;;;;11.73;5.90;;;9.70;99.90;;;;;;5118073;27;20489;-69
2022/05/09 00:57:22;;;;;;;14.07;6.47;;;9.70;99.90;;;;;;5118387;27;20440;-68
2022/05/09 00:59:50;;;;;;;13.63;5.00;;;9.70;99.90;;;;;;5118526;27;21118;-67
2022/05/09 01:02:17;;;;;;;8.43;4.37;;;9.60;99.90;;;;;;5122235;27;20852;-69
2022/05/09 01:04:53;;;;;;;7.30;4.27;;;9.60;99.90;;;;;;5110805;27;20437;-68
2022/05/09 01:07:20;;;;;;;9.17;4.40;;;9.50;99.90;;;;;;5106970;27;20430;-68
2022/05/09 01:09:46;;;;;;;8.03;5.30;;;9.50;99.90;;;;;;5112673;27;20437;-68
2022/05/09 01:12:17;;;;;;;18.40;5.37;;;9.40;99.90;;;;;;5121144;27;20798;-68
2022/05/09 01:14:43;;;;;;;8.50;4.73;;;9.40;99.90;;;;;;5118253;27;20271;-68
2022/05/09 01:17:09;;;;;;;8.90;4.80;;;9.40;99.90;;;;;;5114473;27;20422;-68
2022/05/09 01:19:40;;;;;;;5.43;3.73;;;9.40;99.90;;;;;;5112270;27;20534;-68
2022/05/09 01:22:18;;;;;;;9.20;4.43;;;9.30;99.90;;;;;;5120765;27;20408;-67
2022/05/09 01:24:44;;;;;;;10.30;4.93;;;9.30;99.90;;;;;;5117464;27;20428;-68
2022/05/09 01:27:10;;;;;;;8.97;4.53;;;9.20;99.90;;;;;;5121744;27;20774;-69
2022/05/09 01:29:47;;;;;;;7.70;4.83;;;9.20;99.90;;;;;;5116725;27;20424;-68
2022/05/09 01:32:16;;;;;;;9.47;4.17;;;9.20;99.90;;;;;;5108744;27;20650;-69
2022/05/09 01:34:47;;;;;;;8.10;4.97;;;9.10;99.90;;;;;;5120206;27;20436;-68
2022/05/09 01:37:13;;;;;;;11.77;5.07;;;9.10;99.90;;;;;;5115873;27;20422;-69
2022/05/09 01:39:39;;;;;;;12.20;5.43;;;9.10;99.90;;;;;;5114760;27;20412;-69
2022/05/09 01:42:09;;;;;;;11.80;5.40;;;9.00;99.90;;;;;;5117659;27;20433;-66
2022/05/09 01:44:37;;;;;;;10.73;4.70;;;9.00;99.90;;;;;;5120033;27;20444;-67
2022/05/09 01:49:47;;;;;;;9.67;5.60;;;9.00;99.90;;;;;;5122627;27;20505;-66
2022/05/09 01:52:16;;;;;;;8.90;6.10;;;9.00;99.90;;;;;;5116844;27;20915;-68
2022/05/09 01:54:43;;;;;;;10.80;5.73;;;9.00;99.90;;;;;;5088249;28;20204;-67
2022/05/09 01:57:13;;;;;;;12.53;6.30;;;8.90;99.90;;;;;;5115777;27;20508;-68
2022/05/09 01:59:39;;;;;;;10.57;5.40;;;8.90;99.90;;;;;;5109260;27;20438;-67
2022/05/09 02:02:14;;;;;;;9.57;5.47;;;8.90;99.90;;;;;;5115247;27;20418;-68
2022/05/09 02:04:41;;;;;;;8.30;4.57;;;8.80;99.90;;;;;;5120966;27;20463;-67
2022/05/09 02:07:11;;;;;;;7.57;4.70;;;8.80;99.90;;;;;;5112827;27;20428;-66
2022/05/09 02:09:42;;;;;;;7.43;4.73;;;8.70;99.90;;;;;;5117707;27;21195;-68
2022/05/09 02:12:08;;;;;;;11.23;5.63;;;8.70;99.90;;;;;;5116097;27;20437;-68
2022/05/09 02:14:34;;;;;;;8.13;4.30;;;8.70;99.90;;;;;;5115939;27;20433;-66
2022/05/09 02:17:01;;;;;;;8.53;4.67;;;8.70;99.90;;;;;;5113882;27;20416;-66
2022/05/09 02:19:27;;;;;;;12.57;6.77;;;8.70;99.90;;;;;;5120580;27;20266;-67
2022/05/09 02:21:53;;;;;;;9.93;5.77;;;8.70;99.90;;;;;;5087386;28;20607;-67
2022/05/09 02:24:19;;;;;;;8.30;5.33;;;8.70;99.90;;;;;;5126092;27;20211;-65
2022/05/09 02:26:45;;;;;;;8.40;5.47;;;8.70;99.90;;;;;;5115398;27;20436;-67
2022/05/09 02:29:10;;;;;;;9.00;5.47;;;8.60;99.90;;;;;;5125147;27;20186;-67
2022/05/09 02:31:36;;;;;;;10.70;5.70;;;8.60;99.90;;;;;;5120032;27;20237;-68
2022/05/09 02:34:02;;;;;;;11.10;5.03;;;8.60;99.90;;;;;;5123627;27;20206;-66
2022/05/09 02:36:28;;;;;;;8.00;5.23;;;8.60;99.90;;;;;;5120416;27;20179;-67
2022/05/09 02:38:53;;;;;;;9.40;5.63;;;8.60;99.90;;;;;;5113035;27;20587;-67
2022/05/09 02:41:19;;;;;;;8.97;5.00;;;8.60;99.90;;;;;;5121494;27;20446;-67
2022/05/09 02:43:45;;;;;;;10.73;5.20;;;8.60;99.90;;;;;;5119753;27;20186;-66
2022/05/09 02:46:11;;;;;;;7.07;4.57;;;8.60;99.90;;;;;;5122923;27;20264;-68
2022/05/09 02:48:38;;;;;;;10.93;6.20;;;8.50;99.90;;;;;;5118387;27;20191;-68
2022/05/09 02:51:05;;;;;;;9.40;5.03;;;8.40;99.90;;;;;;5113281;27;20450;-67
2022/05/09 02:53:32;;;;;;;12.53;5.63;;;8.40;99.90;;;;;;5117233;27;20461;-67
2022/05/09 02:55:58;;;;;;;8.37;4.63;;;8.40;99.90;;;;;;5121660;27;20445;-68
2022/05/09 02:58:24;;;;;;;11.00;6.00;;;8.40;99.90;;;;;;5116527;27;21125;-66
2022/05/09 03:00:50;;;;;;;20.30;6.47;;;8.30;99.90;;;;;;5114287;27;20211;-66
2022/05/09 03:06:00;;;;;;;8.87;4.77;;;8.30;99.90;;;;;;5113496;27;20213;-66
2022/05/09 03:08:26;;;;;;;12.27;5.57;;;8.30;99.90;;;;;;5115535;27;20428;-67
2022/05/09 03:10:52;;;;;;;10.20;5.57;;;8.30;99.90;;;;;;5120227;27;20491;-67
2022/05/09 03:13:18;;;;;;;11.43;6.10;;;8.20;99.90;;;;;;5116354;27;20246;-66
2022/05/09 03:15:46;;;;;;;10.27;5.83;;;8.20;99.90;;;;;;5119743;28;20210;-67
2022/05/09 03:18:14;;;;;;;8.87;5.47;;;8.20;99.90;;;;;;5115007;28;20679;-66
2022/05/09 03:20:40;;;;;;;8.03;5.60;;;8.30;99.90;;;;;;5077475;28;20507;-66
2022/05/09 03:23:07;;;;;;;10.27;5.80;;;8.20;99.90;;;;;;5113941;28;20456;-67
2022/05/09 03:25:35;;;;;;;11.57;6.07;;;8.20;99.90;;;;;;5119462;28;20447;-67
2022/05/09 03:28:09;;;;;;;14.23;6.47;;;8.10;99.90;;;;;;5125965;28;20485;-66
2022/05/09 03:30:37;;;;;;;12.13;6.07;;;8.10;99.90;;;;;;5120917;28;20530;-67
2022/05/09 03:33:03;;;;;;;9.57;5.30;;;8.10;99.90;;;;;;5118212;28;20881;-66
2022/05/09 03:35:29;;;;;;;10.87;5.53;;;8.10;99.90;;;;;;5111349;28;20430;-67
2022/05/09 03:37:55;;;;;;;10.17;5.63;;;8.00;99.90;;;;;;5114124;28;20837;-68
2022/05/09 03:40:21;;;;;;;13.43;6.37;;;8.00;99.90;;;;;;5113812;28;20728;-67
2022/05/09 03:42:47;;;;;;;10.27;5.93;;;8.00;99.90;;;;;;5113838;28;20580;-67
2022/05/09 03:45:13;;;;;;;9.73;6.23;;;8.00;99.90;;;;;;5127452;27;20521;-68
2022/05/09 03:47:39;;;;;;;14.63;7.30;;;8.00;99.90;;;;;;5128515;27;20451;-66
2022/05/09 03:50:06;;;;;;;11.23;5.57;;;8.00;99.90;;;;;;5121988;27;20416;-68
2022/05/09 03:52:32;;;;;;;20.60;7.63;;;8.00;99.90;;;;;;5123086;27;20594;-67
2022/05/09 03:54:58;;;;;;;13.47;7.80;;;7.90;99.90;;;;;;5126301;27;20560;-67
2022/05/09 03:57:24;;;;;;;9.70;5.67;;;7.90;99.90;;;;;;5126975;27;20231;-68
2022/05/09 03:59:50;;;;;;;12.77;7.03;;;7.90;99.90;;;;;;5117874;27;20888;-65
2022/05/09 04:02:16;;;;;;;11.93;6.17;;;8.00;99.90;;;;;;5111039;27;21195;-67
2022/05/09 04:04:42;;;;;;;12.00;5.90;;;8.00;99.90;;;;;;5122920;27;21038;-68
2022/05/09 04:07:08;;;;;;;11.00;6.50;;;8.00;99.90;;;;;;5119024;27;20456;-68
2022/05/09 04:09:34;;;;;;;12.57;5.87;;;8.00;99.90;;;;;;5118688;27;20214;-67
2022/05/09 04:11:59;;;;;;;6.83;4.53;;;8.00;99.90;;;;;;5105079;27;20215;-67
2022/05/09 04:17:10;;;;;;;10.80;5.93;;;8.00;99.90;;;;;;5128716;27;20677;-68
2022/05/09 04:19:39;;;;;;;7.93;5.20;;;8.00;99.90;;;;;;5129228;27;20420;-68
2022/05/09 04:22:05;;;;;;;8.40;5.20;;;8.00;99.90;;;;;;5127762;27;20427;-69
2022/05/09 04:24:31;;;;;;;13.17;5.93;;;8.00;99.90;;;;;;5128867;27;20448;-67
2022/05/09 04:26:57;;;;;;;10.20;5.27;;;8.00;99.90;;;;;;5120075;27;20218;-67
2022/05/09 04:29:23;;;;;;;8.70;4.70;;;8.00;99.90;;;;;;5124235;27;20547;-69
2022/05/09 04:31:48;;;;;;;14.57;6.07;;;8.10;99.90;;;;;;5125717;27;20523;-66
2022/05/09 04:34:14;;;;;;;12.27;6.23;;;8.10;99.90;;;;;;5127486;27;20238;-65
2022/05/09 04:36:41;;;;;;;13.13;6.00;;;8.20;99.90;;;;;;5119816;27;20513;-66
2022/05/09 04:39:06;;;;;;;10.30;6.00;;;8.20;99.90;;;;;;5120402;27;20191;-66
2022/05/09 04:41:33;;;;;;;11.70;6.83;;;8.20;99.90;;;;;;5119272;27;20424;-67
2022/05/09 04:43:59;;;;;;;13.30;6.23;;;8.20;99.90;;;;;;5122678;27;20290;-66
2022/05/09 04:46:26;;;;;;;11.93;6.00;;;8.20;99.90;;;;;;5121656;27;21067;-65
2022/05/09 04:48:51;;;;;;;14.73;6.60;;;8.30;99.90;;;;;;5124934;27;21005;-66
2022/05/09 04:51:17;;;;;;;7.03;5.10;;;8.40;99.90;;;;;;5115492;27;20910;-66
2022/05/09 04:53:43;;;;;;;11.50;6.07;;;8.40;99.90;;;;;;5119388;27;20304;-67
2022/05/09 04:56:09;;;;;;;10.17;4.93;;;8.50;99.90;;;;;;5119582;27;20204;-66
2022/05/09 04:58:35;;;;;;;10.60;5.73;;;8.50;99.90;;;;;;5125628;27;21205;-66
2022/05/09 05:01:00;;;;;;;16.47;6.70;;;8.60;99.90;;;;;;5122034;27;20192;-66
2022/05/09 05:03:26;;;;;;;10.23;5.90;;;8.60;99.90;;;;;;5124660;27;20208;-68
2022/05/09 05:05:53;;;;;;;11.03;5.83;;;8.70;99.90;;;;;;5120029;27;20222;-67
2022/05/09 05:08:20;;;;;;;8.40;5.67;;;8.70;99.90;;;;;;5117695;27;20191;-68
2022/05/09 05:10:45;;;;;;;7.00;4.60;;;8.80;99.90;;;;;;5119498;27;20574;-67
2022/05/09 05:13:14;;;;;;;12.33;6.40;;;8.80;99.90;;;;;;5123097;27;20948;-66
2022/05/09 05:15:40;;;;;;;9.73;5.77;;;8.90;99.90;;;;;;5100587;28;20861;-66
2022/05/09 05:18:06;;;;;;;11.60;6.37;;;9.00;99.90;;;;;;5122635;27;20472;-67
2022/05/09 05:20:31;;;;;;;11.80;6.97;;;9.10;99.90;;;;;;5117591;27;20293;-67
2022/05/09 05:22:57;;;;;;;14.57;7.93;;;9.10;99.90;;;;;;5116641;27;20187;-67
2022/05/09 05:25:28;;;;;;;15.40;6.73;;;9.20;99.90;;;;;;5126346;27;20223;-67
2022/05/09 05:27:54;;;;;;;11.80;7.00;;;9.40;99.90;;;;;;5126483;27;20596;-67
2022/05/09 05:30:23;;;;;;;14.20;8.03;;;9.40;99.90;;;;;;5114572;27;20426;-68
2022/05/09 05:32:48;;;;;;;11.80;6.33;;;9.50;99.90;;;;;;5118656;27;20559;-69
2022/05/09 05:35:21;;;;;;;18.00;7.90;;;9.60;99.90;;;;;;5119812;27;20540;-67
2022/05/09 05:37:47;;;;;;;13.23;8.27;;;9.70;99.90;;;;;;5124318;27;20432;-67
2022/05/09 05:40:13;;;;;;;14.13;8.10;;;9.80;99.90;;;;;;5123848;27;20432;-67
2022/05/09 05:42:43;;;;;;;16.63;8.10;;;9.90;99.90;;;;;;5122976;27;20981;-67
2022/05/09 05:45:11;;;;;;;17.83;8.40;;;10.00;99.90;;;;;;5122374;27;20479;-67
2022/05/09 05:47:36;;;;;;;16.83;8.97;;;10.10;99.90;;;;;;5120261;27;20424;-67
2022/05/09 05:50:04;;;;;;;13.20;8.20;;;10.20;99.90;;;;;;5121146;27;20426;-67
2022/05/09 05:52:31;;;;;;;14.23;7.80;;;10.30;99.90;;;;;;5120386;27;20234;-69
2022/05/09 05:54:56;;;;;;;12.10;6.83;;;10.40;99.90;;;;;;5120861;27;20515;-66
2022/05/09 05:57:25;;;;;;;11.23;7.60;;;10.60;99.90;;;;;;5119127;27;20516;-67
2022/05/09 05:59:54;;;;;;;12.57;7.20;;;10.70;99.90;;;;;;5116150;27;20197;-67
2022/05/09 06:02:20;;;;;;;14.67;8.50;;;10.80;99.90;;;;;;5119530;27;20417;-67
2022/05/09 06:04:47;;;;;;;12.60;7.57;;;10.90;99.90;;;;;;5117343;27;20438;-66
2022/05/09 06:07:13;;;;;;;16.23;8.37;;;11.10;99.90;;;;;;5114857;27;20511;-68
2022/05/09 06:09:40;;;;;;;17.90;8.40;;;11.30;99.90;;;;;;5117589;27;21428;-67
2022/05/09 06:12:06;;;;;;;12.27;7.20;;;11.40;99.90;;;;;;5123458;27;20424;-67
2022/05/09 06:14:32;;;;;;;13.13;6.63;;;11.50;99.90;;;;;;5122701;27;20572;-66
2022/05/09 06:16:58;;;;;;;13.37;6.40;;;11.70;99.90;;;;;;5107847;27;20624;-66
2022/05/09 06:19:24;;;;;;;14.63;6.30;;;11.90;99.90;;;;;;5118667;27;20240;-66
2022/05/09 06:21:50;;;;;;;10.87;5.80;;;12.00;99.90;;;;;;5111219;27;20646;-67
2022/05/09 06:24:17;;;;;;;11.43;6.23;;;12.10;99.90;;;;;;5120263;27;20447;-67
2022/05/09 06:26:44;;;;;;;17.90;6.10;;;12.20;99.90;;;;;;5109073;27;20531;-66
2022/05/09 06:29:10;;;;;;;13.63;6.13;;;12.30;99.90;;;;;;5121697;27;20420;-66
2022/05/09 06:31:37;;;;;;;10.40;5.80;;;12.40;99.90;;;;;;5116584;27;20420;-66
2022/05/09 06:34:04;;;;;;;12.63;5.80;;;12.50;99.90;;;;;;5122246;27;20291;-66
2022/05/09 06:36:34;;;;;;;11.07;6.53;;;12.60;99.90;;;;;;5100765;27;20527;-66
2022/05/09 06:39:00;;;;;;;11.00;6.43;;;12.70;99.90;;;;;;5102391;27;20437;-66
2022/05/09 06:41:25;;;;;;;8.43;5.13;;;12.90;99.90;;;;;;5106635;27;20402;-66
2022/05/09 06:43:51;;;;;;;9.80;5.30;;;13.00;99.90;;;;;;5108959;27;20183;-69
2022/05/09 06:46:17;;;;;;;7.40;4.80;;;13.20;99.90;;;;;;5106316;28;20203;-68
2022/05/09 06:48:43;;;;;;;11.07;6.00;;;13.20;99.90;;;;;;5108393;27;20489;-67
2022/05/09 06:51:08;;;;;;;10.70;4.83;;;13.40;99.90;;;;;;5109485;27;20199;-67
2022/05/09 06:53:34;;;;;;;8.03;5.27;;;13.70;99.90;;;;;;5111712;27;20751;-67
2022/05/09 06:56:00;;;;;;;9.27;4.60;;;13.70;99.90;;;;;;5108487;27;20191;-67
2022/05/09 06:58:25;;;;;;;8.23;5.03;;;14.00;99.90;;;;;;5096109;27;20184;-68
2022/05/09 07:00:52;;;;;;;8.10;5.13;;;14.30;99.90;;;;;;5108661;27;20175;-67
2022/05/09 07:03:19;;;;;;;11.70;5.80;;;14.60;99.90;;;;;;5104476;28;20183;-68
2022/05/09 07:05:47;;;;;;;8.93;5.30;;;14.80;99.90;;;;;;5114322;27;20448;-67
2022/05/09 07:08:14;;;;;;;6.97;4.20;;;15.00;99.90;;;;;;5111191;27;20421;-67
2022/05/09 07:10:40;;;;;;;10.07;4.67;;;15.30;99.90;;;;;;5117322;27;20435;-68
2022/05/09 07:13:06;;;;;;;10.63;5.20;;;15.50;99.90;;;;;;5117610;27;20457;-68
2022/05/09 07:15:33;;;;;;;10.50;3.93;;;15.70;99.90;;;;;;5099439;28;20513;-67
2022/05/09 07:17:59;;;;;;;6.60;4.30;;;16.00;99.90;;;;;;5095850;28;20422;-68
2022/05/09 07:20:28;;;;;;;8.40;4.53;;;16.40;99.90;;;;;;5097396;28;20431;-68
2022/05/09 07:22:56;;;;;;;9.60;5.30;;;16.60;99.90;;;;;;5103817;28;20202;-68
2022/05/09 07:25:23;;;;;;;8.87;4.13;;;17.10;99.40;;;;;;5117879;28;20502;-68
2022/05/09 07:27:49;;;;;;;9.47;3.80;;;17.30;98.80;;;;;;5110761;28;20413;-68
2022/05/09 07:30:18;;;;;;;4.83;3.30;;;17.70;98.20;;;;;;5108827;28;20534;-68
2022/05/09 07:32:46;;;;;;;7.93;4.63;;;18.30;98.00;;;;;;5111749;28;20206;-67
2022/05/09 07:35:14;;;;;;;5.37;3.17;;;19.50;96.20;;;;;;5104145;28;20449;-67
2022/05/09 07:37:41;;;;;;;6.10;3.17;;;20.80;93.00;;;;;;5081726;28;21030;-67
2022/05/09 07:40:11;;;;;;;4.57;2.93;;;21.50;90.90;;;;;;5100452;28;20943;-68
2022/05/09 07:42:37;;;;;;;6.57;3.63;;;21.30;91.50;;;;;;5114259;28;20424;-68
2022/05/09 07:45:04;;;;;;;8.60;3.77;;;21.20;91.20;;;;;;5117886;28;20444;-68
2022/05/09 07:47:30;;;;;;;7.77;3.50;;;22.00;89.50;;;;;;5120538;28;21295;-68
2022/05/09 07:49:56;;;;;;;16.13;3.43;;;21.80;90.40;;;;;;5117406;28;20425;-68
2022/05/09 07:52:22;;;;;;;6.70;4.10;;;22.10;90.20;;;;;;5119761;28;20202;-68
2022/05/09 07:54:48;;;;;;;9.90;4.55;;;22.20;89.30;;;;;;5114218;28;20203;-68
2022/05/09 07:57:14;;;;;;;7.47;3.28;;;23.30;84.90;;;;;;5120418;28;20190;-67
2022/05/09 07:59:40;;;;;;;5.93;3.58;;;24.00;84.60;;;;;;5110231;28;20186;-66
2022/05/09 08:02:06;;;;;;;8.13;4.10;;;24.90;80.20;;;;;;5112591;28;20183;-67
2022/05/09 08:04:32;;;;;;;12.32;4.18;;;24.00;81.90;;;;;;5108323;28;20359;-65
2022/05/09 08:06:58;;;;;;;7.30;3.58;;;24.60;81.00;;;;;;5119735;28;20237;-67
2022/05/09 08:09:24;;;;;;;8.43;3.65;;;24.20;82.00;;;;;;5107462;28;20178;-66
2022/05/09 08:11:50;;;;;;;7.80;3.65;;;25.40;77.00;;;;;;5118765;28;20202;-68
2022/05/09 08:14:16;;;;;;;7.55;2.92;;;25.40;76.50;;;;;;5119214;28;20198;-67
2022/05/09 08:16:43;;;;;;;7.07;3.88;;;25.30;75.70;;;;;;5125100;28;20340;-68
2022/05/09 08:19:11;;;;;;;5.43;3.47;;;25.30;74.60;;;;;;5124877;28;20190;-68
2022/05/09 08:21:37;;;;;;;13.02;4.20;;;24.70;75.60;;;;;;5124119;28;20251;-68
2022/05/09 08:24:05;;;;;;;7.97;3.50;;;23.10;80.70;;;;;;5123282;28;20774;-68
2022/05/09 08:26:31;;;;;;;6.30;3.10;;;22.70;80.60;;;;;;5118178;28;20228;-70
2022/05/09 08:28:57;;;;;;;6.45;3.60;;;23.00;82.30;;;;;;5121934;28;20266;-68
2022/05/09 08:31:23;;;;;;;5.20;2.72;;;24.20;79.10;;;;;;5120287;27;20312;-68
2022/05/09 08:33:51;;;;;;;6.45;3.50;;;24.20;79.50;;;;;;5124422;27;20222;-66
2022/05/09 08:39:05;;;;;;;6.28;3.50;;;23.90;79.20;;;;;;5126578;27;20246;-66
2022/05/09 08:41:55;;;;;;;9.77;3.90;;;23.80;81.40;;;;;;5121871;27;20183;-67
2022/05/09 08:44:39;;;;;;;8.50;3.65;;;24.30;77.90;;;;;;5125025;27;20640;-65
2022/05/09 08:47:20;;;;;;;6.30;3.15;;;23.90;77.90;;;;;;5122802;27;20638;-66
2022/05/09 08:50:06;;;;;;;10.00;4.57;;;23.70;79.20;;;;;;5117930;27;20183;-66
2022/05/09 08:52:42;;;;;;;4.57;3.20;;;24.20;78.80;;;;;;5076267;27;20206;-67
2022/05/09 08:55:10;;;;;;;8.75;3.60;;;24.80;76.50;;;;;;5118693;27;20571;-66
2022/05/09 08:57:45;;;;;;;5.15;3.08;;;25.60;73.10;;;;;;5119298;27;20233;-66
2022/05/09 09:00:14;;;;;;;7.53;4.07;;;24.90;75.10;;;;;;5127013;27;20181;-66
2022/05/09 09:02:43;;;;;;;4.32;2.72;;;24.20;77.70;;;;;;5092376;28;20251;-65
2022/05/09 09:05:12;;;;;;;8.40;3.47;;;23.40;78.10;;;;;;5126990;27;20203;-66
2022/05/09 09:07:46;;;;;;;6.47;3.83;;;23.30;78.70;;;;;;5126242;27;20191;-67
2022/05/09 09:10:18;;;;;;;6.13;2.67;;;23.40;79.80;;;;;;5127006;27;20174;-69
2022/05/09 09:13:05;;;;;;;4.72;3.38;;;23.30;79.70;;;;;;5125585;27;20726;-68
2022/05/09 09:15:36;;;;;;;5.15;3.50;;;23.40;81.20;;;;;;5118397;27;20276;-68
2022/05/09 09:18:28;;;;;;;4.65;2.83;;;23.70;78.20;;;;;;5125949;27;20179;-67
2022/05/09 09:21:05;;;;;;;5.45;3.30;;;23.10;82.30;;;;;;5123320;27;20194;-67
2022/05/09 09:23:39;;;;;;;5.35;3.00;;;24.10;77.70;;;;;;5121505;27;20282;-68
2022/05/09 09:26:25;;;;;;;5.93;2.53;;;23.90;77.40;;;;;;5120923;27;20221;-66
2022/05/09 09:29:18;;;;;;;6.57;3.45;;;23.60;80.20;;;;;;5117910;27;20190;-67
2022/05/09 09:31:55;;;;;;;6.05;3.70;;;23.30;80.50;;;;;;5111035;27;20294;-67
2022/05/09 09:34:26;;;;;;;9.55;3.15;;;23.30;81.30;;;;;;5124545;27;20675;-67
2022/05/09 09:37:13;;;;;;;7.32;3.78;;;23.20;79.60;;;;;;5119437;27;20535;-67
2022/05/09 09:39:40;;;;;;;4.90;3.10;;;22.90;79.30;;;;;;5115310;27;20390;-67
2022/05/09 09:42:06;;;;;;;6.38;3.85;;;22.70;79.90;;;;;;5118762;27;20654;-66
2022/05/09 09:44:34;;;;;;;5.47;2.83;;;22.30;81.50;;;;;;5121191;27;20321;-67
2022/05/09 09:47:21;;;;;;;6.63;4.10;;;22.80;78.80;;;;;;5119528;27;20198;-67
2022/05/09 09:49:49;;;;;;;4.60;2.80;;;22.60;80.50;;;;;;5117115;27;20191;-67
2022/05/09 09:52:28;;;;;;;5.97;3.10;;;22.70;80.40;;;;;;5120236;27;20195;-67
2022/05/09 09:55:06;;;;;;;8.57;3.13;;;22.90;82.60;;;;;;5114332;27;20301;-68
2022/05/09 09:57:38;;;;;;;5.77;3.93;;;23.10;82.00;;;;;;5120240;27;20257;-67
2022/05/09 10:00:19;;;;;;;9.83;3.57;;;22.80;82.60;;;;;;5127527;27;20301;-67
2022/05/09 10:02:46;;;;;;;7.20;3.58;;;23.30;79.40;;;;;;5124252;27;20178;-67
2022/05/09 10:05:15;;;;;;;6.30;3.13;;;23.40;80.30;;;;;;5122843;27;20206;-67
2022/05/09 10:07:44;;;;;;;7.67;2.43;;;22.80;80.00;;;;;;5123868;27;20190;-65
2022/05/09 10:10:16;;;;;;;6.33;3.50;;;22.30;82.30;;;;;;5121024;27;20419;-66
2022/05/09 10:12:48;;;;;;;4.60;2.53;;;21.80;81.80;;;;;;5118248;27;20417;-67
2022/05/09 10:15:29;;;;;;;5.60;3.20;;;22.00;80.90;;;;;;5116590;27;20969;-68
2022/05/09 10:17:56;;;;;;;5.53;3.50;;;21.70;82.50;;;;;;5117034;27;20503;-67
2022/05/09 10:20:27;;;;;;;4.20;2.90;;;22.10;83.70;;;;;;5120902;27;20710;-66
2022/05/09 10:26:18;;;;;;;5.53;3.20;;;22.50;79.40;;;;;;5118435;27;21026;-67
2022/05/09 10:28:49;;;;;;;5.17;2.87;;;22.30;81.10;;;;;;5115210;27;20413;-67
2022/05/09 10:31:33;;;;;;;3.73;2.47;;;22.10;82.60;;;;;;5111348;27;20507;-69
2022/05/09 10:34:18;;;;;;;6.73;2.80;;;21.80;82.20;;;;;;5114577;27;20473;-67
2022/05/09 10:36:50;;;;;;;5.30;3.00;;;21.50;84.50;;;;;;5093030;28;21108;-66
2022/05/09 10:39:31;;;;;;;5.63;3.20;;;21.80;80.20;;;;;;5117740;27;20424;-67
2022/05/09 10:42:00;;;;;;;6.63;3.50;;;22.10;80.00;;;;;;5113083;27;20437;-67
2022/05/09 10:44:47;;;;;;;5.73;3.43;;;22.20;80.90;;;;;;5113442;27;20464;-69
2022/05/09 10:47:33;;;;;;;6.07;3.33;;;22.20;80.30;;;;;;5111675;27;20416;-69
2022/05/09 10:50:09;;;;;;;8.23;3.20;;;22.20;81.00;;;;;;5116349;27;20515;-68
2022/05/09 10:53:06;;;;;;;6.00;3.30;;;22.20;80.50;;;;;;5118762;27;20436;-69
2022/05/09 10:55:40;;;;;;;6.07;3.87;;;21.60;82.90;;;;;;5081946;27;20457;-70
2022/05/09 10:58:21;;;;;;;8.63;3.03;;;21.30;84.10;;;;;;5098365;27;20937;-69
2022/05/09 11:00:52;;;;;;;4.93;3.13;;;21.30;82.90;;;;;;5104324;27;20474;-69
2022/05/09 11:03:34;;;;;;;9.57;2.73;;;21.50;81.90;;;;;;5099779;27;20538;-67
2022/05/09 11:06:19;;;;;;;7.40;4.07;;;21.50;81.60;;;;;;5103067;27;20789;-70
2022/05/09 11:09:27;;;;;;;10.37;3.20;;;21.80;82.30;;;;;;5102291;27;20490;-67
2022/05/09 11:12:20;;;;;;;3.70;2.33;;;21.70;82.90;;;;;;5106734;28;20431;-70
2022/05/09 11:14:51;;;;;;;6.70;3.60;;;21.80;82.10;;;;;;5098241;27;20484;-68
2022/05/09 11:17:32;;;;;;;5.23;2.83;;;21.70;80.90;;;;;;5107703;28;20461;-68
2022/05/09 11:20:25;;;;;;;5.67;2.97;;;21.30;82.00;;;;;;5103087;28;20424;-68
2022/05/09 11:23:10;;;;;;;5.73;3.10;;;21.50;81.00;;;;;;5081699;28;20489;-68
2022/05/09 11:25:43;;;;;;;6.37;2.90;;;21.80;81.30;;;;;;5104812;28;20517;-69
2022/05/09 11:28:25;;;;;;;5.23;2.40;;;21.80;82.60;;;;;;5107291;28;20470;-68
2022/05/09 11:30:54;;;;;;;10.83;3.10;;;22.10;81.40;;;;;;5114484;28;20911;-68
2022/05/09 11:33:33;;;;;;;4.80;2.77;;;22.00;80.60;;;;;;5122315;28;20985;-68
2022/05/09 11:36:22;;;;;;;13.03;2.80;;;22.30;78.10;;;;;;5120659;28;20452;-69
2022/05/09 11:39:23;;;;;;;4.93;2.13;;;22.20;80.30;;;;;;5101958;28;20562;-68
2022/05/09 11:45:19;;;;;;;7.03;2.60;;;23.20;78.30;;;;;;5109808;28;20505;-68
2022/05/09 11:48:01;;;;;;;6.77;2.80;;;22.70;77.50;;;;;;5109849;28;20432;-67
2022/05/09 11:50:49;;;;;;;10.53;3.80;;;23.10;79.30;;;;;;5123533;28;20549;-68
2022/05/09 11:53:17;;;;;;;4.83;2.77;;;23.70;76.70;;;;;;5087193;28;20471;-67
2022/05/09 11:55:47;;;;;;;4.67;2.23;;;23.70;75.60;;;;;;5119277;28;20554;-68
2022/05/09 11:58:13;;;;;;;5.60;2.97;;;23.50;76.90;;;;;;5116229;28;20432;-68
2022/05/09 12:00:38;;;;;;;4.83;2.60;;;23.60;75.60;;;;;;5114773;28;20444;-69
2022/05/09 12:03:09;;;;;;;5.53;2.87;;;23.60;76.40;;;;;;5109030;28;20175;-68
2022/05/09 12:05:35;;;;;;;5.33;2.97;;;23.70;76.30;;;;;;5112613;27;20214;-68
2022/05/09 12:08:13;;;;;;;5.23;2.77;;;23.90;73.70;;;;;;5114003;27;20417;-68
2022/05/09 12:10:41;;;;;;;5.30;2.17;;;23.80;74.50;;;;;;5108423;27;20420;-68
2022/05/09 12:13:33;;;;;;;5.80;1.93;;;24.00;71.40;;;;;;5108598;27;20491;-68
2022/05/09 12:16:00;;;;;;;5.43;2.67;;;23.80;73.70;;;;;;5105621;27;20440;-68
2022/05/09 12:18:32;;;;;;;5.30;2.70;;;23.40;73.30;;;;;;5111193;27;20411;-67
2022/05/09 12:21:21;;;;;;;3.70;2.00;;;23.20;73.30;;;;;;5109925;27;20431;-68
2022/05/09 12:23:53;;;;;;;3.47;2.37;;;22.60;73.10;;;;;;5112673;27;20434;-68
2022/05/09 12:26:28;;;;;;;9.07;2.90;;;22.50;75.10;;;;;;5115025;27;20437;-69
2022/05/09 12:29:07;;;;;;;7.17;2.67;;;22.50;75.00;;;;;;5115794;27;20424;-69
2022/05/09 12:31:49;;;;;;;4.17;2.43;;;22.60;75.40;;;;;;5122885;27;20446;-69
2022/05/09 12:34:30;;;;;;;5.07;2.53;;;22.80;76.80;;;;;;5126805;27;20474;-68
2022/05/09 12:36:56;;;;;;;4.40;2.53;;;23.40;72.20;;;;;;5121890;27;20420;-69
2022/05/09 12:39:24;;;;;;;5.57;2.70;;;23.20;75.20;;;;;;5118042;27;20422;-69
2022/05/09 12:41:53;;;;;;;5.30;2.37;;;23.30;73.90;;;;;;5120611;27;20187;-71
2022/05/09 12:44:21;;;;;;;7.30;2.77;;;23.20;74.00;;;;;;5118892;27;20455;-68
2022/05/09 12:46:59;;;;;;;6.03;2.37;;;23.40;76.20;;;;;;5120827;27;20503;-68
2022/05/09 12:49:35;;;;;;;7.77;2.80;;;23.20;72.20;;;;;;5121038;27;20807;-69
2022/05/09 12:52:01;;;;;;;5.40;2.40;;;23.50;74.40;;;;;;5122488;27;20508;-68
2022/05/09 12:54:29;;;;;;;6.40;3.17;;;23.00;74.50;;;;;;5078270;27;21173;-68
2022/05/09 12:56:59;;;;;;;4.57;1.90;;;23.00;74.30;;;;;;5107621;27;20454;-69
2022/05/09 12:59:27;;;;;;;3.73;2.73;;;22.90;75.60;;;;;;5114693;27;20500;-69
2022/05/09 13:01:53;;;;;;;5.53;2.83;;;23.10;76.60;;;;;;5122409;27;20451;-69
2022/05/09 13:04:20;;;;;;;5.07;3.17;;;22.90;73.10;;;;;;5117268;27;20444;-69
2022/05/09 13:06:51;;;;;;;3.77;2.70;;;23.00;77.10;;;;;;5102786;27;20523;-68
2022/05/09 13:09:23;;;;;;;4.90;2.83;;;22.80;74.30;;;;;;5113732;27;20515;-71
2022/05/09 13:11:56;;;;;;;9.30;2.47;;;23.10;77.00;;;;;;5121383;27;20443;-69
2022/05/09 13:15:00;;;;;;;4.37;2.27;;;23.00;74.40;;;;;;5108925;27;20472;-69
2022/05/09 13:17:30;;;;;;;5.53;2.27;;;23.50;72.10;;;;;;5111122;27;20467;-69
2022/05/09 13:19:57;;;;;;;4.60;2.50;;;24.00;70.60;;;;;;5119481;27;20457;-71